Time;durP1;ratioP1;P1;durP2;ratioP2;P2;SDS_P1;SDS_P2;PMS_P1;PMS_P2;Temp;Humidity;BMP_temperature;BMP_pressure;BME280_temperature;BME280_humidity;BME280_pressure;Samples;Min_cycle;Max_cycle;Signal;HPM_P1;HPM_P2
2021/10/24 00:01:03;;;;;;;81.97;23.27;;;6.40;99.90;;;;;;6196313;23;20391;-76
2021/10/24 00:03:31;;;;;;;160.30;33.17;;;6.40;99.90;;;;;;6195920;23;20407;-76
2021/10/24 00:06:00;;;;;;;100.30;28.07;;;6.40;99.90;;;;;;6159277;23;20427;-77
2021/10/24 00:08:29;;;;;;;142.00;21.80;;;6.40;99.90;;;;;;6195821;23;20423;-76
2021/10/24 00:10:57;;;;;;;134.67;18.13;;;6.30;99.90;;;;;;6186273;23;20485;-76
2021/10/24 00:13:28;;;;;;;161.17;28.80;;;6.30;99.90;;;;;;6159535;23;20422;-76
2021/10/24 00:15:57;;;;;;;152.43;32.10;;;6.30;99.90;;;;;;6159490;23;20435;-76
2021/10/24 00:18:25;;;;;;;96.43;14.93;;;6.30;99.90;;;;;;6159221;23;20419;-76
2021/10/24 00:20:54;;;;;;;149.03;27.73;;;6.30;99.90;;;;;;6195810;23;20271;-76
2021/10/24 00:23:22;;;;;;;146.70;24.97;;;6.30;99.90;;;;;;6159541;23;20823;-76
2021/10/24 00:25:51;;;;;;;233.57;28.03;;;6.20;99.90;;;;;;6196153;23;20430;-76
2021/10/24 00:28:19;;;;;;;130.77;29.97;;;6.20;99.90;;;;;;6159382;23;20419;-76
2021/10/24 00:30:51;;;;;;;157.53;30.37;;;6.20;99.90;;;;;;6159321;23;20914;-76
2021/10/24 00:33:22;;;;;;;176.83;33.37;;;6.20;99.90;;;;;;6159742;23;20829;-77
2021/10/24 00:35:51;;;;;;;110.40;24.67;;;6.20;99.90;;;;;;6159409;23;20459;-76
2021/10/24 00:38:19;;;;;;;103.87;20.40;;;6.20;99.90;;;;;;6159276;23;20927;-76
2021/10/24 00:40:47;;;;;;;194.90;41.20;;;6.20;99.90;;;;;;6159580;23;20758;-76
2021/10/24 00:43:15;;;;;;;126.77;36.07;;;6.20;99.90;;;;;;6159386;23;20921;-77
2021/10/24 00:45:43;;;;;;;134.57;29.83;;;6.20;99.90;;;;;;6159651;23;20447;-76
2021/10/24 00:48:13;;;;;;;132.73;25.77;;;6.10;99.90;;;;;;6159353;23;20503;-77
2021/10/24 00:50:42;;;;;;;101.57;18.80;;;6.10;99.90;;;;;;6158997;23;21014;-76
2021/10/24 00:53:13;;;;;;;122.07;16.63;;;6.10;99.90;;;;;;6159231;23;20506;-76
2021/10/24 00:55:44;;;;;;;193.50;35.90;;;6.10;99.90;;;;;;6159319;23;20522;-76
2021/10/24 00:58:14;;;;;;;114.87;18.67;;;6.10;99.90;;;;;;6185701;23;20394;-76
2021/10/24 01:00:42;;;;;;;145.60;23.57;;;6.10;99.90;;;;;;6159539;23;20450;-76
2021/10/24 01:03:12;;;;;;;158.10;29.43;;;6.10;99.90;;;;;;6159412;23;20411;-76
2021/10/24 01:05:42;;;;;;;65.93;21.37;;;6.00;99.90;;;;;;6159393;23;20522;-76
2021/10/24 01:08:11;;;;;;;122.80;26.87;;;6.00;99.90;;;;;;6159495;23;20438;-76
2021/10/24 01:10:39;;;;;;;123.43;25.93;;;6.00;99.90;;;;;;6159495;23;20471;-77
2021/10/24 01:13:07;;;;;;;106.57;22.23;;;6.00;99.90;;;;;;6159340;23;20423;-76
2021/10/24 01:15:36;;;;;;;83.87;25.07;;;6.00;99.90;;;;;;6159012;23;20415;-77
2021/10/24 01:18:04;;;;;;;177.13;34.77;;;6.00;99.90;;;;;;6159067;23;20435;-77
2021/10/24 01:20:32;;;;;;;110.23;23.43;;;6.00;99.90;;;;;;6159363;23;20444;-76
2021/10/24 01:23:02;;;;;;;177.40;32.73;;;6.00;99.90;;;;;;6159183;23;20478;-76
2021/10/24 01:25:31;;;;;;;166.30;34.63;;;6.00;99.90;;;;;;6159485;23;20420;-76
2021/10/24 01:28:01;;;;;;;140.00;24.83;;;6.00;99.90;;;;;;6160921;23;20462;-76
2021/10/24 01:30:29;;;;;;;128.00;26.63;;;6.00;99.90;;;;;;6158973;23;20442;-76
2021/10/24 01:32:58;;;;;;;135.23;28.93;;;6.00;99.90;;;;;;6159406;23;20415;-76
2021/10/24 01:35:29;;;;;;;183.00;30.97;;;6.00;99.90;;;;;;6159166;23;20484;-77
2021/10/24 01:37:58;;;;;;;182.80;31.57;;;6.00;99.90;;;;;;6158866;23;20435;-76
2021/10/24 01:40:28;;;;;;;115.87;24.77;;;5.90;99.90;;;;;;6158895;23;20501;-76
2021/10/24 01:42:57;;;;;;;142.83;21.47;;;5.90;99.90;;;;;;6159269;23;20455;-76
2021/10/24 01:45:29;;;;;;;94.40;21.43;;;5.90;99.90;;;;;;6159193;23;20408;-76
2021/10/24 01:48:11;;;;;;;115.37;25.93;;;5.90;99.90;;;;;;6160198;23;20444;-76
2021/10/24 01:50:39;;;;;;;119.13;29.13;;;5.90;99.90;;;;;;6160478;23;20445;-76
2021/10/24 01:53:11;;;;;;;229.27;32.63;;;5.90;99.90;;;;;;6160864;23;20807;-76
2021/10/24 01:55:40;;;;;;;151.87;29.03;;;5.90;99.90;;;;;;6160911;23;20466;-77
2021/10/24 01:58:08;;;;;;;127.90;29.53;;;5.90;99.90;;;;;;6160800;23;20475;-77
2021/10/24 02:00:37;;;;;;;139.23;29.50;;;5.90;99.90;;;;;;6161088;23;20465;-76
2021/10/24 02:03:06;;;;;;;102.03;25.03;;;5.80;99.90;;;;;;6160824;23;20422;-77
2021/10/24 02:05:47;;;;;;;156.43;32.83;;;5.80;99.90;;;;;;6160759;23;20410;-77
2021/10/24 02:08:16;;;;;;;177.80;36.20;;;5.80;99.90;;;;;;6161425;23;20423;-76
2021/10/24 02:10:46;;;;;;;129.47;22.53;;;5.80;99.90;;;;;;6160899;23;20438;-76
2021/10/24 02:13:16;;;;;;;190.40;25.23;;;5.80;99.90;;;;;;6161132;23;20427;-76
2021/10/24 02:15:44;;;;;;;204.80;40.97;;;5.70;99.90;;;;;;6160697;23;20407;-77
2021/10/24 02:18:13;;;;;;;117.63;23.10;;;5.70;99.90;;;;;;6160434;23;20469;-77
2021/10/24 02:20:45;;;;;;;110.77;26.73;;;5.70;99.90;;;;;;6160797;23;20439;-77
2021/10/24 02:23:14;;;;;;;165.87;30.53;;;5.70;99.90;;;;;;6160465;23;20416;-77
2021/10/24 02:25:44;;;;;;;132.60;27.83;;;5.70;99.90;;;;;;6160645;23;20408;-77
2021/10/24 02:28:17;;;;;;;108.37;26.07;;;5.60;99.90;;;;;;6160446;23;20408;-77
2021/10/24 02:30:45;;;;;;;179.93;34.33;;;5.60;99.90;;;;;;6160551;23;20431;-77
2021/10/24 02:33:42;;;;;;;155.10;28.37;;;5.60;99.90;;;;;;6186731;23;20416;-76
2021/10/24 02:36:25;;;;;;;162.97;41.23;;;5.60;99.90;;;;;;6197242;23;20411;-77
2021/10/24 02:39:02;;;;;;;166.00;32.77;;;5.60;99.90;;;;;;6160343;23;20471;-77
2021/10/24 02:41:35;;;;;;;106.37;28.50;;;5.50;99.90;;;;;;6160687;23;20426;-77
2021/10/24 02:44:05;;;;;;;103.53;26.10;;;5.50;99.90;;;;;;6160486;23;20763;-77
2021/10/24 02:46:40;;;;;;;116.53;21.83;;;5.50;99.90;;;;;;6160671;23;20419;-76
2021/10/24 02:49:13;;;;;;;160.03;30.90;;;5.50;99.90;;;;;;6159990;23;20470;-76
2021/10/24 02:51:53;;;;;;;152.03;33.67;;;5.50;99.90;;;;;;6161311;23;20415;-77
2021/10/24 02:54:22;;;;;;;139.67;30.33;;;5.40;99.90;;;;;;6160299;23;20415;-76
2021/10/24 02:56:52;;;;;;;103.50;30.33;;;5.40;99.90;;;;;;6161441;23;20493;-77
2021/10/24 02:59:22;;;;;;;120.93;20.80;;;5.40;99.90;;;;;;6160205;23;20477;-76
2021/10/24 03:01:50;;;;;;;109.90;28.70;;;5.40;99.90;;;;;;6160337;23;20736;-77
2021/10/24 03:04:19;;;;;;;126.03;29.27;;;5.40;99.90;;;;;;6160315;23;20418;-77
2021/10/24 03:06:49;;;;;;;225.40;38.10;;;5.40;99.90;;;;;;6160380;23;20486;-76
2021/10/24 03:09:18;;;;;;;92.83;22.70;;;5.30;99.90;;;;;;6160460;23;20485;-77
2021/10/24 03:11:47;;;;;;;232.63;40.77;;;5.30;99.90;;;;;;6160200;23;20547;-77
2021/10/24 03:14:16;;;;;;;151.60;37.33;;;5.30;99.90;;;;;;6160533;23;20411;-77
2021/10/24 03:16:46;;;;;;;122.43;29.90;;;5.30;99.90;;;;;;6160123;23;20482;-76
2021/10/24 03:19:15;;;;;;;104.33;27.37;;;5.30;99.90;;;;;;6159754;23;20463;-77
2021/10/24 03:21:50;;;;;;;64.83;20.90;;;5.20;99.90;;;;;;6160694;23;20759;-77
2021/10/24 03:24:19;;;;;;;184.43;32.67;;;5.20;99.90;;;;;;6160177;23;20477;-77
2021/10/24 03:26:48;;;;;;;88.77;20.70;;;5.20;99.90;;;;;;6160035;23;20446;-77
2021/10/24 03:29:17;;;;;;;161.60;32.33;;;5.20;99.90;;;;;;6159894;23;20763;-77
2021/10/24 03:31:46;;;;;;;111.80;26.97;;;5.20;99.90;;;;;;6159960;23;20895;-77
2021/10/24 03:34:15;;;;;;;499.50;59.63;;;5.10;99.90;;;;;;6160385;23;20415;-77
2021/10/24 03:36:44;;;;;;;145.27;42.63;;;5.10;99.90;;;;;;6160352;23;20454;-76
2021/10/24 03:39:13;;;;;;;135.73;32.53;;;5.10;99.90;;;;;;6159717;23;20439;-76
2021/10/24 03:41:41;;;;;;;150.70;38.97;;;5.10;99.90;;;;;;6159779;23;20418;-77
2021/10/24 03:44:14;;;;;;;159.30;30.73;;;5.10;99.90;;;;;;6159778;23;20891;-77
2021/10/24 03:46:42;;;;;;;1925.80;488.17;;;5.10;99.90;;;;;;6159805;23;20423;-77
2021/10/24 03:49:13;;;;;;;235.83;54.07;;;5.00;99.90;;;;;;6159705;23;20439;-77
2021/10/24 03:51:45;;;;;;;172.63;39.77;;;5.00;99.90;;;;;;6160064;23;20962;-77
2021/10/24 03:54:16;;;;;;;153.30;40.33;;;5.00;99.90;;;;;;6159749;23;20419;-77
2021/10/24 03:56:45;;;;;;;162.83;51.87;;;5.00;99.90;;;;;;6159693;23;20729;-76
2021/10/24 03:59:13;;;;;;;155.27;43.33;;;5.00;99.90;;;;;;6159703;23;20481;-76
2021/10/24 04:01:41;;;;;;;160.83;41.93;;;4.90;99.90;;;;;;6159714;23;20457;-77
2021/10/24 04:04:10;;;;;;;123.37;29.13;;;4.90;99.90;;;;;;6159613;23;20420;-76
2021/10/24 04:06:42;;;;;;;122.97;39.93;;;4.90;99.90;;;;;;6160117;23;20903;-77
2021/10/24 04:09:11;;;;;;;100.70;28.30;;;4.90;99.90;;;;;;6159512;23;20439;-77
2021/10/24 04:11:39;;;;;;;99.40;29.60;;;4.90;99.90;;;;;;6159391;23;20470;-77
2021/10/24 04:14:08;;;;;;;173.53;37.73;;;4.90;99.90;;;;;;6159572;23;20419;-77
2021/10/24 04:16:38;;;;;;;1610.67;398.00;;;4.90;99.90;;;;;;6159716;23;20408;-76
2021/10/24 04:19:18;;;;;;;93.50;32.23;;;4.80;99.90;;;;;;6159389;23;20451;-76
2021/10/24 04:21:49;;;;;;;147.03;32.23;;;4.80;99.90;;;;;;6159470;23;20451;-76
2021/10/24 04:24:17;;;;;;;98.57;31.07;;;4.80;99.90;;;;;;6159270;23;20411;-77
2021/10/24 04:26:46;;;;;;;100.60;29.87;;;4.80;99.90;;;;;;6159549;23;20415;-76
2021/10/24 04:29:15;;;;;;;101.97;31.83;;;4.80;99.90;;;;;;6159660;23;20436;-76
2021/10/24 04:31:44;;;;;;;112.00;35.73;;;4.80;99.90;;;;;;6159429;23;20415;-76
2021/10/24 04:34:13;;;;;;;123.07;29.50;;;4.80;99.90;;;;;;6195625;23;20431;-77
2021/10/24 04:36:42;;;;;;;87.63;26.50;;;4.80;99.90;;;;;;6159727;23;20419;-76
2021/10/24 04:39:12;;;;;;;189.80;40.00;;;4.70;99.90;;;;;;6159110;23;20486;-77
2021/10/24 04:41:41;;;;;;;119.43;35.07;;;4.70;99.90;;;;;;6159567;23;20510;-77
2021/10/24 04:44:10;;;;;;;151.47;27.83;;;4.70;99.90;;;;;;6159439;23;20418;-77
2021/10/24 04:46:39;;;;;;;110.03;27.70;;;4.70;99.90;;;;;;6159445;23;20902;-76
2021/10/24 04:49:09;;;;;;;110.60;27.00;;;4.70;99.90;;;;;;6159344;23;20431;-77
2021/10/24 04:51:37;;;;;;;122.60;35.63;;;4.70;99.90;;;;;;6159520;23;20431;-76
2021/10/24 04:54:06;;;;;;;112.90;38.93;;;4.70;99.90;;;;;;6159237;23;20906;-76
2021/10/24 04:56:36;;;;;;;145.77;41.80;;;4.60;99.90;;;;;;6159804;23;20447;-76
2021/10/24 04:59:04;;;;;;;95.20;33.93;;;4.60;99.90;;;;;;6159189;23;20474;-76
2021/10/24 05:01:35;;;;;;;132.47;35.20;;;4.60;99.90;;;;;;6159688;23;20423;-77
2021/10/24 05:04:04;;;;;;;147.43;35.83;;;4.60;99.90;;;;;;6159252;23;20423;-76
2021/10/24 05:06:32;;;;;;;167.73;43.23;;;4.60;99.90;;;;;;6159370;23;20447;-76
2021/10/24 05:09:01;;;;;;;59.63;34.13;;;4.60;99.90;;;;;;6159256;23;20432;-76
2021/10/24 05:11:30;;;;;;;161.50;38.07;;;4.60;99.90;;;;;;6159278;23;20412;-77
2021/10/24 05:14:02;;;;;;;127.47;34.60;;;4.50;99.90;;;;;;6195992;23;20439;-77
2021/10/24 05:16:31;;;;;;;189.80;36.47;;;4.50;99.90;;;;;;6158957;23;20799;-77
2021/10/24 05:19:00;;;;;;;142.80;30.60;;;4.50;99.90;;;;;;6159191;23;20486;-76
2021/10/24 05:21:28;;;;;;;162.20;50.73;;;4.50;99.90;;;;;;6159189;23;20927;-77
2021/10/24 05:24:00;;;;;;;195.13;39.20;;;4.50;99.90;;;;;;6159459;23;20420;-77
2021/10/24 05:26:29;;;;;;;101.50;26.80;;;4.50;99.90;;;;;;6161572;23;20474;-77
2021/10/24 05:28:59;;;;;;;176.23;32.20;;;4.50;99.90;;;;;;6161236;23;20431;-77
2021/10/24 05:31:28;;;;;;;117.53;26.17;;;4.50;99.90;;;;;;6161302;23;20461;-77
2021/10/24 05:34:12;;;;;;;100.70;34.27;;;4.40;99.90;;;;;;6162102;23;20493;-76
2021/10/24 05:36:49;;;;;;;106.10;35.43;;;4.50;99.90;;;;;;6160881;23;20411;-77
2021/10/24 05:39:17;;;;;;;140.00;40.90;;;4.40;99.90;;;;;;6160540;23;20475;-77
2021/10/24 05:41:47;;;;;;;113.40;47.10;;;4.40;99.90;;;;;;6161218;23;20494;-77
2021/10/24 05:44:19;;;;;;;32.83;30.10;;;4.40;99.90;;;;;;6197301;23;20434;-77
2021/10/24 05:46:54;;;;;;;46.17;43.47;;;4.40;99.90;;;;;;6161167;23;20754;-77
2021/10/24 05:49:29;;;;;;;142.43;41.90;;;4.40;99.90;;;;;;6160969;23;20810;-77
2021/10/24 05:51:57;;;;;;;232.13;56.03;;;4.40;99.90;;;;;;6161234;23;20503;-77
2021/10/24 05:54:26;;;;;;;1999.90;811.87;;;4.40;99.90;;;;;;6160915;23;20423;-76
2021/10/24 05:56:54;;;;;;;165.43;53.07;;;4.30;99.90;;;;;;6160662;23;20794;-77
2021/10/24 05:59:44;;;;;;;137.50;47.47;;;4.30;99.90;;;;;;6161654;23;20455;-77
2021/10/24 06:02:17;;;;;;;94.00;38.27;;;4.30;99.90;;;;;;6160740;23;20782;-76
2021/10/24 06:05:05;;;;;;;150.93;35.10;;;4.30;99.90;;;;;;6197495;23;20414;-77
2021/10/24 06:07:35;;;;;;;131.67;28.40;;;4.30;99.90;;;;;;6160766;23;20478;-77
2021/10/24 06:10:12;;;;;;;36.03;33.53;;;4.30;99.90;;;;;;6160556;23;20432;-77
2021/10/24 06:12:43;;;;;;;184.70;46.97;;;4.30;99.90;;;;;;6197491;23;20418;-76
2021/10/24 06:15:16;;;;;;;148.17;36.60;;;4.20;99.90;;;;;;6160664;23;20415;-77
2021/10/24 06:17:44;;;;;;;153.07;41.17;;;4.20;99.90;;;;;;6160511;23;20423;-77
2021/10/24 06:20:15;;;;;;;193.77;38.80;;;4.30;99.90;;;;;;6160681;23;20443;-77
2021/10/24 06:22:44;;;;;;;101.20;34.73;;;4.30;99.90;;;;;;6160508;23;20411;-76
2021/10/24 06:25:16;;;;;;;138.27;35.00;;;4.30;99.90;;;;;;6160640;23;20733;-76
2021/10/24 06:27:47;;;;;;;168.67;38.63;;;4.20;99.90;;;;;;6160821;23;20423;-77
2021/10/24 06:30:21;;;;;;;94.47;29.83;;;4.30;99.90;;;;;;6160637;23;20442;-76
2021/10/24 06:33:16;;;;;;;92.77;38.70;;;4.30;99.90;;;;;;6150930;23;20891;-76
2021/10/24 06:36:03;;;;;;;87.77;32.10;;;4.20;99.90;;;;;;6186876;23;20469;-76
2021/10/24 06:38:50;;;;;;;157.73;35.73;;;4.20;99.90;;;;;;6187161;23;20915;-76
2021/10/24 06:41:25;;;;;;;161.73;35.77;;;4.20;99.90;;;;;;6160583;23;20953;-77
2021/10/24 06:44:12;;;;;;;158.33;40.10;;;4.30;99.90;;;;;;6197185;23;20434;-77
2021/10/24 06:46:47;;;;;;;152.80;46.70;;;4.30;99.90;;;;;;6197600;23;20392;-76
2021/10/24 06:49:34;;;;;;;135.07;35.77;;;4.30;99.90;;;;;;6196840;23;20610;-77
2021/10/24 06:52:21;;;;;;;185.03;38.50;;;4.30;99.90;;;;;;6197180;23;20395;-76
2021/10/24 06:55:00;;;;;;;125.30;35.77;;;4.30;99.90;;;;;;6160866;23;20422;-77
2021/10/24 06:57:48;;;;;;;89.27;28.40;;;4.30;99.90;;;;;;6197452;23;20782;-76
2021/10/24 07:00:35;;;;;;;112.60;34.63;;;4.30;99.90;;;;;;6196847;23;20858;-77
2021/10/24 07:03:23;;;;;;;160.33;36.30;;;4.40;99.90;;;;;;6196785;23;20387;-76
2021/10/24 07:06:26;;;;;;;171.80;40.13;;;4.40;99.90;;;;;;6105348;23;20410;-77
2021/10/24 07:09:14;;;;;;;135.03;30.27;;;4.40;99.90;;;;;;6189669;23;20769;-77
2021/10/24 07:12:02;;;;;;;198.60;37.30;;;4.50;99.90;;;;;;6160350;23;20802;-77
2021/10/24 07:14:30;;;;;;;130.13;32.27;;;4.50;99.90;;;;;;6160878;23;20450;-77
2021/10/24 07:16:59;;;;;;;123.93;27.53;;;4.50;99.90;;;;;;6160098;23;20450;-77
2021/10/24 07:19:29;;;;;;;167.07;27.53;;;4.50;99.90;;;;;;6160027;23;20475;-76
2021/10/24 07:21:57;;;;;;;90.77;26.60;;;4.60;99.90;;;;;;6161506;23;20701;-77
2021/10/24 07:24:48;;;;;;;98.80;28.73;;;4.60;99.90;;;;;;6186112;23;20416;-77
2021/10/24 07:27:18;;;;;;;166.90;30.70;;;4.80;99.90;;;;;;6159921;23;20453;-77
2021/10/24 07:29:47;;;;;;;115.10;31.33;;;4.80;99.90;;;;;;6159307;23;20522;-77
2021/10/24 07:32:16;;;;;;;87.77;23.60;;;4.80;99.90;;;;;;6159112;23;20471;-77
2021/10/24 07:34:53;;;;;;;91.70;29.20;;;4.80;99.90;;;;;;6159693;23;20415;-77
2021/10/24 07:37:21;;;;;;;161.03;32.13;;;4.80;99.90;;;;;;6159871;23;20411;-77
2021/10/24 07:39:52;;;;;;;94.60;25.97;;;4.90;99.90;;;;;;6159703;23;20455;-77
2021/10/24 07:42:20;;;;;;;126.80;28.73;;;4.90;99.90;;;;;;6159830;23;20985;-77
2021/10/24 07:44:50;;;;;;;118.23;30.13;;;5.00;99.90;;;;;;6159747;23;20470;-77
2021/10/24 07:47:19;;;;;;;146.30;30.40;;;5.00;99.90;;;;;;6159473;23;20733;-77
2021/10/24 07:49:48;;;;;;;114.90;26.23;;;5.10;99.90;;;;;;6159714;23;20475;-77
2021/10/24 07:52:19;;;;;;;93.43;24.27;;;5.20;99.90;;;;;;6159922;23;20506;-77
2021/10/24 07:54:48;;;;;;;88.23;22.57;;;5.30;99.90;;;;;;6160269;23;20426;-77
2021/10/24 07:57:16;;;;;;;81.97;21.83;;;5.40;99.90;;;;;;6159638;23;20767;-77
2021/10/24 07:59:44;;;;;;;95.53;25.43;;;5.50;99.90;;;;;;6160109;23;20784;-76
2021/10/24 08:02:13;;;;;;;110.53;20.30;;;5.60;99.90;;;;;;6159695;23;20455;-76
2021/10/24 08:04:41;;;;;;;170.80;38.17;;;5.60;99.90;;;;;;6160004;23;20539;-77
2021/10/24 08:07:10;;;;;;;121.70;24.27;;;5.70;99.90;;;;;;6159681;23;20946;-77
2021/10/24 08:09:40;;;;;;;125.67;30.73;;;5.80;99.90;;;;;;6159511;23;20932;-77
2021/10/24 08:12:08;;;;;;;193.60;38.43;;;5.90;99.90;;;;;;6159665;23;20424;-77
2021/10/24 08:14:38;;;;;;;153.90;23.37;;;5.90;99.90;;;;;;6160200;23;20974;-76
2021/10/24 08:17:06;;;;;;;184.73;30.00;;;6.00;99.90;;;;;;6159987;23;20423;-76
2021/10/24 08:19:35;;;;;;;107.00;27.47;;;6.10;99.90;;;;;;6159554;23;20454;-76
2021/10/24 08:22:08;;;;;;;145.00;30.50;;;6.10;99.90;;;;;;6161052;23;20402;-76
2021/10/24 08:24:42;;;;;;;117.97;28.20;;;6.20;99.90;;;;;;6159930;23;20740;-77
2021/10/24 08:27:21;;;;;;;113.70;25.93;;;6.20;99.90;;;;;;6159534;23;20463;-76
2021/10/24 08:29:54;;;;;;;165.87;26.77;;;6.30;99.90;;;;;;6159799;23;20436;-77
2021/10/24 08:32:55;;;;;;;128.80;27.57;;;6.40;99.90;;;;;;6130205;23;20743;-77
2021/10/24 08:35:24;;;;;;;122.90;23.37;;;6.40;99.90;;;;;;6159455;23;20474;-77
2021/10/24 08:37:52;;;;;;;164.37;26.37;;;6.50;99.90;;;;;;6186380;23;20450;-77
2021/10/24 08:40:22;;;;;;;192.80;35.10;;;6.50;99.90;;;;;;6159182;23;20815;-77
2021/10/24 08:42:57;;;;;;;134.30;26.93;;;6.60;99.90;;;;;;6159913;23;20502;-77
2021/10/24 08:45:27;;;;;;;135.67;28.97;;;6.60;99.90;;;;;;6186163;23;20391;-77
2021/10/24 08:47:57;;;;;;;214.03;32.90;;;6.70;99.90;;;;;;6185869;23;20404;-77
2021/10/24 08:50:25;;;;;;;152.23;27.20;;;6.70;99.90;;;;;;6195721;23;20416;-77
2021/10/24 08:52:58;;;;;;;216.30;36.93;;;6.80;99.90;;;;;;6159271;23;20392;-77
2021/10/24 08:55:27;;;;;;;138.63;31.33;;;6.90;99.90;;;;;;6196549;23;20887;-77
2021/10/24 08:57:56;;;;;;;159.13;34.27;;;7.00;99.90;;;;;;6159585;23;20421;-81
2021/10/24 09:00:41;;;;;;;173.23;35.17;;;7.00;99.90;;;;;;6161191;23;20442;-77
2021/10/24 09:03:10;;;;;;;174.27;41.23;;;7.10;99.90;;;;;;6161561;23;20499;-77
2021/10/24 09:05:40;;;;;;;160.43;36.47;;;7.20;99.90;;;;;;6197743;23;20399;-77
2021/10/24 09:08:09;;;;;;;192.43;40.00;;;7.20;99.90;;;;;;6197498;23;20390;-77
2021/10/24 09:10:45;;;;;;;270.17;46.67;;;7.30;99.90;;;;;;6161179;23;20490;-77
2021/10/24 09:13:15;;;;;;;183.50;40.37;;;7.40;99.90;;;;;;6161336;23;20478;-77
2021/10/24 09:15:52;;;;;;;144.77;37.57;;;7.50;99.90;;;;;;6161281;23;20475;-76
2021/10/24 09:18:22;;;;;;;147.57;33.43;;;7.60;99.90;;;;;;6161540;23;20867;-77
2021/10/24 09:20:54;;;;;;;141.50;36.07;;;7.60;99.90;;;;;;6161016;23;20444;-77
2021/10/24 09:23:22;;;;;;;178.50;40.23;;;7.70;99.90;;;;;;6161224;23;20470;-77
2021/10/24 09:25:55;;;;;;;182.23;34.70;;;7.80;99.90;;;;;;6161229;23;20482;-76
2021/10/24 09:28:26;;;;;;;161.47;40.67;;;7.80;99.90;;;;;;6160872;23;20435;-77
2021/10/24 09:31:04;;;;;;;276.20;49.80;;;7.80;99.90;;;;;;6198188;23;20478;-77
2021/10/24 09:33:46;;;;;;;223.67;52.13;;;7.90;99.90;;;;;;6161404;23;20402;-76
2021/10/24 09:36:23;;;;;;;229.83;51.57;;;8.00;99.90;;;;;;6161305;23;20506;-77
2021/10/24 09:39:31;;;;;;;183.87;43.67;;;8.10;99.90;;;;;;6187275;23;20943;-77
2021/10/24 09:42:14;;;;;;;196.00;42.10;;;8.20;99.90;;;;;;6161071;23;20851;-77
2021/10/24 09:45:00;;;;;;;211.80;43.67;;;8.30;99.90;;;;;;6160921;23;20494;-77
2021/10/24 09:47:29;;;;;;;182.10;34.40;;;8.30;99.90;;;;;;6161278;23;20406;-77
2021/10/24 09:49:57;;;;;;;196.10;41.70;;;8.40;99.90;;;;;;6197241;23;20431;-77
2021/10/24 09:52:27;;;;;;;171.00;34.60;;;8.50;99.90;;;;;;6161006;23;20486;-77
2021/10/24 09:54:56;;;;;;;235.30;35.27;;;8.50;99.90;;;;;;6161236;23;20420;-76
2021/10/24 09:57:26;;;;;;;132.33;33.03;;;8.60;99.90;;;;;;6161040;23;20910;-77
2021/10/24 09:59:55;;;;;;;143.57;35.70;;;8.60;99.90;;;;;;6160831;23;20443;-77
2021/10/24 10:02:24;;;;;;;182.33;40.80;;;8.70;99.90;;;;;;6160835;23;20435;-77
2021/10/24 10:04:52;;;;;;;175.07;40.10;;;8.80;99.90;;;;;;6161093;23;20453;-77
2021/10/24 10:07:22;;;;;;;229.77;42.47;;;8.80;99.90;;;;;;6197278;23;20495;-77
2021/10/24 10:09:51;;;;;;;145.90;37.37;;;8.90;99.90;;;;;;6196706;23;20759;-77
2021/10/24 10:12:21;;;;;;;172.03;57.43;;;9.00;99.90;;;;;;6160695;23;20412;-77
2021/10/24 10:14:57;;;;;;;156.87;43.67;;;9.00;99.90;;;;;;6160908;23;20403;-77
2021/10/24 10:17:26;;;;;;;245.13;49.00;;;9.10;99.90;;;;;;6160976;23;20407;-77
2021/10/24 10:19:54;;;;;;;334.67;61.23;;;9.20;99.90;;;;;;6161061;23;20443;-77
2021/10/24 10:22:31;;;;;;;285.93;59.87;;;9.20;99.90;;;;;;6161002;23;20435;-77
2021/10/24 10:25:01;;;;;;;200.63;53.07;;;9.30;99.90;;;;;;6187435;23;20450;-77
2021/10/24 10:27:41;;;;;;;245.43;55.80;;;9.30;99.90;;;;;;6161389;23;20447;-77
2021/10/24 10:30:14;;;;;;;258.10;56.73;;;9.40;99.90;;;;;;6160787;23;20432;-76
2021/10/24 10:32:45;;;;;;;199.13;46.10;;;9.40;99.90;;;;;;6161047;23;20439;-77
2021/10/24 10:35:15;;;;;;;297.90;60.80;;;9.50;99.90;;;;;;6160820;23;20418;-77
2021/10/24 10:37:52;;;;;;;361.20;70.40;;;9.60;99.90;;;;;;6160423;23;20481;-77
2021/10/24 10:40:23;;;;;;;270.30;55.07;;;9.60;99.90;;;;;;6190224;23;20474;-77
2021/10/24 10:42:57;;;;;;;174.57;48.73;;;9.70;99.90;;;;;;6160681;23;20474;-77
2021/10/24 10:45:48;;;;;;;339.90;73.73;;;9.70;99.90;;;;;;6160659;23;20408;-77
2021/10/24 10:48:29;;;;;;;244.57;61.57;;;9.80;99.90;;;;;;6160382;23;20419;-76
2021/10/24 10:51:00;;;;;;;400.17;79.20;;;9.90;99.90;;;;;;6160537;23;20445;-77
2021/10/24 10:53:51;;;;;;;342.87;85.77;;;10.00;99.90;;;;;;6187196;23;20852;-76
2021/10/24 10:56:22;;;;;;;342.37;92.23;;;10.00;99.90;;;;;;6197205;23;20786;-77
2021/10/24 10:58:51;;;;;;;366.90;82.23;;;10.10;99.90;;;;;;6160357;23;20412;-77
2021/10/24 11:01:31;;;;;;;358.17;99.03;;;10.10;99.90;;;;;;6160171;23;20439;-77
2021/10/24 11:04:20;;;;;;;282.93;68.30;;;10.20;99.90;;;;;;6196848;23;20438;-77
2021/10/24 11:06:56;;;;;;;418.10;118.40;;;10.30;99.90;;;;;;6160295;23;20470;-77
2021/10/24 11:09:48;;;;;;;511.13;110.07;;;10.30;99.90;;;;;;6160376;23;20439;-77
2021/10/24 11:12:41;;;;;;;423.93;97.50;;;10.40;99.90;;;;;;6160397;23;20410;-77
2021/10/24 11:15:18;;;;;;;265.90;77.27;;;10.40;99.90;;;;;;6160270;23;20468;-77
2021/10/24 11:17:49;;;;;;;474.30;112.53;;;10.50;99.90;;;;;;6160803;23;20822;-77
2021/10/24 11:20:20;;;;;;;577.80;118.30;;;10.60;99.90;;;;;;6160023;23;20799;-77
2021/10/24 11:22:56;;;;;;;448.60;133.80;;;10.60;99.90;;;;;;6159998;23;20482;-77
2021/10/24 11:25:45;;;;;;;472.03;102.73;;;10.70;99.90;;;;;;6196441;23;20383;-77
2021/10/24 11:28:19;;;;;;;253.23;65.07;;;10.70;99.90;;;;;;6196495;23;20410;-77
2021/10/24 11:30:58;;;;;;;512.67;131.37;;;10.80;99.90;;;;;;6159899;23;20438;-77
2021/10/24 11:33:29;;;;;;;402.67;133.13;;;10.80;99.90;;;;;;6196695;23;20415;-77
2021/10/24 11:35:57;;;;;;;479.23;127.83;;;10.80;99.90;;;;;;6160630;23;20466;-77
2021/10/24 11:38:28;;;;;;;709.20;171.97;;;10.90;99.90;;;;;;6159965;23;20415;-77
2021/10/24 11:40:57;;;;;;;389.67;109.43;;;10.90;99.90;;;;;;6159616;23;20443;-77
2021/10/24 11:43:26;;;;;;;472.80;130.40;;;10.90;99.90;;;;;;6159502;23;20450;-77
2021/10/24 11:45:56;;;;;;;470.77;131.37;;;11.00;99.90;;;;;;6159879;23;20756;-76
2021/10/24 11:48:26;;;;;;;734.87;196.00;;;11.00;99.90;;;;;;6196687;23;20384;-77
2021/10/24 11:50:58;;;;;;;574.07;155.53;;;11.10;99.90;;;;;;6196182;23;20419;-77
2021/10/24 11:53:30;;;;;;;512.60;137.67;;;11.10;99.90;;;;;;6159975;23;20412;-77
2021/10/24 11:56:00;;;;;;;440.20;121.37;;;11.20;99.90;;;;;;6160862;23;20414;-77
2021/10/24 12:01:18;;;;;;;556.07;131.43;;;11.20;99.90;;;;;;6170703;23;20887;-76
2021/10/24 12:03:54;;;;;;;668.50;189.33;;;11.30;99.90;;;;;;6160804;23;20442;-77
2021/10/24 12:06:57;;;;;;;527.13;159.53;;;11.30;99.90;;;;;;6159777;23;20824;-77
2021/10/24 12:09:31;;;;;;;540.17;161.13;;;11.30;99.90;;;;;;6196443;23;20518;-77
2021/10/24 12:12:10;;;;;;;657.47;159.97;;;11.40;99.90;;;;;;6159722;23;20487;-77
2021/10/24 12:14:53;;;;;;;1910.77;507.97;;;11.40;99.90;;;;;;6159571;23;20466;-77
2021/10/24 12:17:22;;;;;;;1280.80;312.47;;;11.40;99.90;;;;;;6159816;23;20879;-77
2021/10/24 12:20:14;;;;;;;705.73;195.13;;;11.50;99.90;;;;;;6159423;23;20493;-76
2021/10/24 12:22:46;;;;;;;983.50;260.43;;;11.50;99.90;;;;;;6159417;23;20825;-77
2021/10/24 12:25:20;;;;;;;1477.60;368.33;;;11.50;99.90;;;;;;6160269;23;20448;-76
2021/10/24 12:28:09;;;;;;;967.43;233.23;;;11.60;99.90;;;;;;6159503;23;20792;-77
2021/10/24 12:30:37;;;;;;;881.60;239.00;;;11.60;99.90;;;;;;6196305;23;20451;-77
2021/10/24 12:33:07;;;;;;;1507.53;328.77;;;11.60;99.90;;;;;;6159258;23;20404;-77
2021/10/24 12:35:43;;;;;;;734.77;182.47;;;11.60;99.90;;;;;;6196320;23;20439;-77
2021/10/24 12:38:13;;;;;;;1935.60;425.50;;;11.70;99.90;;;;;;6185943;23;20419;-77
2021/10/24 12:40:51;;;;;;;1729.80;407.13;;;11.70;99.90;;;;;;6159511;23;20542;-77
2021/10/24 12:43:19;;;;;;;1949.17;483.30;;;11.70;99.90;;;;;;6159498;23;20439;-76
2021/10/24 12:45:52;;;;;;;1999.90;999.90;;;11.70;99.90;;;;;;6159885;23;20502;-76
2021/10/24 12:48:22;;;;;;;1999.90;634.77;;;11.70;99.90;;;;;;6185661;23;20427;-77
2021/10/24 12:50:51;;;;;;;1999.90;649.33;;;11.80;99.90;;;;;;6159160;23;20427;-77
2021/10/24 12:53:23;;;;;;;1999.90;955.00;;;11.80;99.90;;;;;;6159296;23;20419;-77
2021/10/24 12:56:01;;;;;;;1999.90;950.23;;;11.80;99.90;;;;;;6159378;23;20462;-77